sensor_id;sensor_type;location;lat;lon;timestamp;pressure;altitude;pressure_sealevel;temperature;humidity
38253;BME280;24785;52.372;20.672;2023-04-01T00:06:30;98597.81;;;8.51;100.00
38253;BME280;24785;52.372;20.672;2023-04-01T00:16:31;98597.81;;;8.51;100.00
38253;BME280;24785;52.372;20.672;2023-04-01T00:26:31;98599.00;;;8.45;100.00
38253;BME280;24785;52.372;20.672;2023-04-01T00:36:32;98578.91;;;8.48;100.00
38253;BME280;24785;52.372;20.672;2023-04-01T00:46:33;98578.22;;;8.56;100.00
38253;BME280;24785;52.372;20.672;2023-04-01T00:56:42;98564.78;;;8.47;100.00
38253;BME280;24785;52.372;20.672;2023-04-01T01:07:12;98549.03;;;8.37;100.00
38253;BME280;24785;52.372;20.672;2023-04-01T01:17:35;98560.53;;;8.46;100.00
38253;BME280;24785;52.372;20.672;2023-04-01T01:27:41;98570.03;;;8.52;100.00
38253;BME280;24785;52.372;20.672;2023-04-01T01:37:46;98577.72;;;8.54;100.00
38253;BME280;24785;52.372;20.672;2023-04-01T01:47:51;98571.81;;;8.43;100.00
38253;BME280;24785;52.372;20.672;2023-04-01T01:57:52;98563.16;;;8.38;100.00
38253;BME280;24785;52.372;20.672;2023-04-01T02:08:00;98540.06;;;8.33;100.00
38253;BME280;24785;52.372;20.672;2023-04-01T02:18:02;98533.91;;;8.33;100.00
38253;BME280;24785;52.372;20.672;2023-04-01T02:28:06;98515.34;;;8.28;100.00
38253;BME280;24785;52.372;20.672;2023-04-01T02:38:08;98518.00;;;8.28;100.00
38253;BME280;24785;52.372;20.672;2023-04-01T02:48:09;98516.44;;;8.27;100.00
38253;BME280;24785;52.372;20.672;2023-04-01T02:58:10;98510.69;;;8.33;100.00
38253;BME280;24785;52.372;20.672;2023-04-01T03:08:11;98511.75;;;8.32;100.00
38253;BME280;24785;52.372;20.672;2023-04-01T03:18:12;98515.81;;;8.30;100.00
38253;BME280;24785;52.372;20.672;2023-04-01T03:28:13;98509.09;;;8.32;100.00
38253;BME280;24785;52.372;20.672;2023-04-01T03:38:14;98512.63;;;8.41;100.00
38253;BME280;24785;52.372;20.672;2023-04-01T03:48:16;98518.78;;;8.50;100.00
38253;BME280;24785;52.372;20.672;2023-04-01T03:58:17;98533.84;;;8.69;100.00
38253;BME280;24785;52.372;20.672;2023-04-01T04:08:18;98565.56;;;8.70;100.00
38253;BME280;24785;52.372;20.672;2023-04-01T04:18:19;98611.88;;;8.66;100.00
38253;BME280;24785;52.372;20.672;2023-04-01T04:28:19;98633.97;;;8.58;100.00
38253;BME280;24785;52.372;20.672;2023-04-01T04:38:20;98655.94;;;8.55;100.00
38253;BME280;24785;52.372;20.672;2023-04-01T04:48:21;98668.53;;;8.40;100.00
38253;BME280;24785;52.372;20.672;2023-04-01T04:58:21;98681.88;;;8.40;100.00
38253;BME280;24785;52.372;20.672;2023-04-01T05:08:22;98695.03;;;8.37;100.00
38253;BME280;24785;52.372;20.672;2023-04-01T05:18:23;98713.09;;;8.40;100.00
38253;BME280;24785;52.372;20.672;2023-04-01T05:28:24;98716.25;;;8.56;100.00
38253;BME280;24785;52.372;20.672;2023-04-01T05:38:25;98736.59;;;8.65;100.00
38253;BME280;24785;52.372;20.672;2023-04-01T05:48:25;98741.28;;;9.27;100.00
38253;BME280;24785;52.372;20.672;2023-04-01T05:58:26;98763.97;;;9.60;100.00
38253;BME280;24785;52.372;20.672;2023-04-01T06:08:29;98772.19;;;9.72;100.00
38253;BME280;24785;52.372;20.672;2023-04-01T06:18:44;98782.16;;;9.81;100.00
38253;BME280;24785;52.372;20.672;2023-04-01T06:28:59;98784.03;;;9.80;100.00
38253;BME280;24785;52.372;20.672;2023-04-01T06:49:58;98791.53;;;10.00;100.00
38253;BME280;24785;52.372;20.672;2023-04-01T07:00:04;98790.50;;;10.19;100.00
38253;BME280;24785;52.372;20.672;2023-04-01T07:20:38;98808.34;;;11.15;100.00
38253;BME280;24785;52.372;20.672;2023-04-01T07:30:52;98801.41;;;11.14;100.00
38253;BME280;24785;52.372;20.672;2023-04-01T07:51:59;98801.09;;;10.24;100.00
38253;BME280;24785;52.372;20.672;2023-04-01T08:22:40;98819.00;;;9.84;100.00
38253;BME280;24785;52.372;20.672;2023-04-01T08:32:46;98830.91;;;9.77;100.00
38253;BME280;24785;52.372;20.672;2023-04-01T08:43:04;98833.19;;;9.93;100.00
38253;BME280;24785;52.372;20.672;2023-04-01T08:53:46;98839.44;;;10.10;100.00
38253;BME280;24785;52.372;20.672;2023-04-01T09:45:35;98863.59;;;10.59;100.00
38253;BME280;24785;52.372;20.672;2023-04-01T11:49:21;98894.53;;;10.82;100.00
38253;BME280;24785;52.372;20.672;2023-04-01T12:30:30;98917.31;;;11.19;100.00
38253;BME280;24785;52.372;20.672;2023-04-01T13:43:32;98974.84;;;9.03;100.00
38253;BME280;24785;52.372;20.672;2023-04-01T14:45:59;99014.00;;;8.80;100.00
38253;BME280;24785;52.372;20.672;2023-04-01T14:56:05;99035.09;;;8.82;100.00
38253;BME280;24785;52.372;20.672;2023-04-01T15:06:33;99073.28;;;8.82;100.00
38253;BME280;24785;52.372;20.672;2023-04-01T15:16:52;99090.94;;;8.65;100.00
38253;BME280;24785;52.372;20.672;2023-04-01T15:27:06;99095.91;;;8.71;100.00
38253;BME280;24785;52.372;20.672;2023-04-01T16:29:26;99217.50;;;8.26;100.00
38253;BME280;24785;52.372;20.672;2023-04-01T16:39:29;99239.31;;;8.09;100.00
38253;BME280;24785;52.372;20.672;2023-04-01T16:49:40;99251.56;;;7.86;100.00
38253;BME280;24785;52.372;20.672;2023-04-01T17:31:26;99308.56;;;7.38;100.00
38253;BME280;24785;52.372;20.672;2023-04-01T17:51:49;99344.84;;;7.34;100.00
38253;BME280;24785;52.372;20.672;2023-04-01T18:12:17;99380.97;;;7.06;100.00
38253;BME280;24785;52.372;20.672;2023-04-01T18:22:41;99402.84;;;7.03;100.00
38253;BME280;24785;52.372;20.672;2023-04-01T18:33:03;99416.97;;;7.03;100.00
38253;BME280;24785;52.372;20.672;2023-04-01T18:43:22;99429.44;;;7.08;100.00
38253;BME280;24785;52.372;20.672;2023-04-01T18:53:48;99440.69;;;7.00;100.00
38253;BME280;24785;52.372;20.672;2023-04-01T19:03:57;99451.38;;;6.89;100.00
38253;BME280;24785;52.372;20.672;2023-04-01T19:14:14;99461.78;;;6.86;100.00
38253;BME280;24785;52.372;20.672;2023-04-01T19:24:25;99466.81;;;6.92;100.00
38253;BME280;24785;52.372;20.672;2023-04-01T19:54:59;99524.13;;;6.75;100.00
38253;BME280;24785;52.372;20.672;2023-04-01T20:05:21;99535.31;;;6.72;100.00
38253;BME280;24785;52.372;20.672;2023-04-01T20:15:45;99547.31;;;6.69;100.00
38253;BME280;24785;52.372;20.672;2023-04-01T20:26:11;99557.16;;;6.43;100.00
38253;BME280;24785;52.372;20.672;2023-04-01T20:47:09;99568.34;;;6.35;100.00
38253;BME280;24785;52.372;20.672;2023-04-01T20:57:31;99590.69;;;6.39;100.00
38253;BME280;24785;52.372;20.672;2023-04-01T21:28:34;99622.09;;;6.22;100.00
38253;BME280;24785;52.372;20.672;2023-04-01T21:49:28;99640.72;;;6.17;100.00
38253;BME280;24785;52.372;20.672;2023-04-01T22:00:09;99651.84;;;6.09;100.00
38253;BME280;24785;52.372;20.672;2023-04-01T22:20:28;99667.00;;;6.03;100.00
38253;BME280;24785;52.372;20.672;2023-04-01T22:31:04;99665.38;;;5.97;100.00
38253;BME280;24785;52.372;20.672;2023-04-01T22:51:41;99688.00;;;5.99;100.00
38253;BME280;24785;52.372;20.672;2023-04-01T23:01:54;99698.00;;;5.82;100.00
38253;BME280;24785;52.372;20.672;2023-04-01T23:32:22;99718.56;;;5.97;100.00
38253;BME280;24785;52.372;20.672;2023-04-01T23:42:31;99729.88;;;5.72;100.00
38253;BME280;24785;52.372;20.672;2023-04-01T23:52:40;99744.25;;;5.76;100.00
